Trenton, NJ

1:13 PM EST on December 25, 2014 (GMT -0500)
Morris Heights | Change Station
CLOSE
Current Station
Personal Weather Station
Location: Morrisville, PA
Elevation: 89 ft
Nearby Weather Stations

Elev 89 ft 40.22 °N, 74.78 °W | Updated 4 seconds ago

Partly Cloudy
Partly Cloudy
51.8 °F
Feels Like 51.8 °F
N
3.8
Wind Variable Wind from North
Gusts 9.5 mph

Today
High -- | Low -- °F
--% Chance of Precip.
Yesterday
High -- | Low -- °F
Precip. -- in
7:19 AM 4:38 PM
Waxing Crescent, 18% visible
Pressure 29.83 in
Visibility 10.0 miles
Clouds Overcast 5500 ft
Dew Point 34 °F
Humidity 51%
Rainfall 0.07 in
Snow Depth Not available.
UV 1 out of 12
Pollen .10 out of 12
Air Quality Not available.
Flu Activity Not available.
METAR KTTN 251753Z 30013G27KT 10SM OVC055 11/M02 A2984 RMK AO2 PK WND 31028/1701 SLP099 60000 T01061017 10106 20089 51021

More Conditions Fewer Conditions

Pressure 29.83 in
Visibility 10.0 miles
Clouds Overcast 5500 ft
Dew Point 34 °F
Humidity 51%
Rainfall 0.07 in
Snow Depth Not available.
UV 1 out of 12
Pollen .10 out of 12
Air Quality Not available.
Flu Activity Not available.
METAR KTTN 251753Z 30013G27KT 10SM OVC055 11/M02 A2984 RMK AO2 PK WND 31028/1701 SLP099 60000 T01061017 10106 20089 51021

More Conditions Fewer Conditions

10-Day Weather Forecast

Almanac

Astronomy

Dec. 25, 2014 Rise Set
Actual Time
Civil Twilight
Nautical Twilight
Astronomical Twilight
Moon
Length of Visible Light
Length of Day
Tomorrow will be .
, % of the Moon is Illuminated

Today's Extremes

State Highs State Lows

Community

WunderPhotos

Upload Photos

1,780,353 photos uploaded!

WunderBlogs® & News

Nearby

Air Quality

  Air Quality AQ Index Pollutant
Not available.

Snow Depth

Station Depth Elevation

Earthquake Activity

City Distance Mag. Time & Date
Minimum magnitude displayed is 2.5.

Coastal Water Temperatures

Place Temperature

Nearby Weather Stations